»·PEaware :: N285 KSNA-KFAT

N285 :: KSNA-KFAT

FLIGHT INFORMATION

Flight Status: Arrived
Operator: Privately registered:
United States
More flights under this callsign
Pilot: Leo F. (613)
Aircraft: BEECH AIRCRAFT SUPER KING AIR COMMUTER
(BE20)
More flights by this aircraft type
Origin: KSNA John Wayne-Orange Co
United States
Destination: KFAT Fresno Yosemite Intl
United States
More flights between these airports :: More routes between these airports
Route: +MUSEL8 SLI V459 TTE ALTTA8
File this flight plan on PilotEdge
Remarks:
Altitude:
(Current/Filed)
16,000ft
Speed:
(Current/Filed)
260kts
Departed: 22-Jun-19 11:55 AM
Arrived: 22-Jun-19 12:58 PM
Distance/Time
Traveled:
207nm/1:03
Distance/Time
To Go:
Arrived

Flight Plot

Page will automatically refresh every two minutes.

Flight plan parsing failed; only flown route is shown


Map Options




Map Legend


Flown Route
Filed Route
Departure Airport
Arrival Airport
Navaid (VOR, NDB)
Fix

Horizontal Profiles

Position Reports

Time Latitude Longitude Heading Altitude Ground
Speed
22-Jun-19 11:34 33.674392 -117.872104 300 60ft 0kts
22-Jun-19 11:35 33.674392 -117.872106 300 60ft 0kts
22-Jun-19 11:36 33.674393 -117.872107 300 60ft 0kts
22-Jun-19 11:37 33.674394 -117.872109 300 60ft 0kts
22-Jun-19 11:38 33.674395 -117.872110 300 60ft 0kts
22-Jun-19 11:39 33.674395 -117.872112 300 60ft 0kts
22-Jun-19 11:40 33.674396 -117.872113 300 60ft 0kts
22-Jun-19 11:41 33.674397 -117.872115 300 60ft 0kts
22-Jun-19 11:42 33.674398 -117.872116 300 60ft 0kts
22-Jun-19 11:44 33.674398 -117.872118 300 60ft 0kts
22-Jun-19 11:45 33.674399 -117.872119 300 60ft 0kts
22-Jun-19 11:46 33.674400 -117.872121 300 60ft 0kts
22-Jun-19 11:47 33.674400 -117.872122 300 60ft 0kts
22-Jun-19 11:48 33.676115 -117.870162 27 60ft 12kts
22-Jun-19 11:49 33.677778 -117.869070 29 60ft 17kts
22-Jun-19 11:50 33.681205 -117.866733 86 60ft 0kts
22-Jun-19 11:51 33.681205 -117.866733 86 60ft 0kts
22-Jun-19 11:52 33.681205 -117.866733 86 60ft 0kts
22-Jun-19 11:53 33.681205 -117.866733 86 60ft 0kts
22-Jun-19 11:54 33.680333 -117.865933 208 60ft 25kts
22-Jun-19 11:55 33.653441 -117.882988 208 772ft 156kts
22-Jun-19 11:56 33.609783 -117.897239 188 2787ft 168kts
22-Jun-19 11:57 33.574425 -117.928168 258 4545ft 180kts
22-Jun-19 11:58 33.563711 -117.988840 260 6244ft 191kts
22-Jun-19 11:59 33.552569 -118.052490 260 7880ft 202kts
22-Jun-19 12:00 33.540106 -118.128263 260 8016ft 256kts
22-Jun-19 12:01 33.525969 -118.215822 260 8020ft 274kts
22-Jun-19 12:02 33.545877 -118.293807 338 8353ft 249kts
22-Jun-19 12:03 33.600411 -118.267192 42 10036ft 217kts
22-Jun-19 12:03 33.636166 -118.225787 40 11441ft 212kts
22-Jun-19 12:04 33.681913 -118.172964 40 11974ft 250kts
22-Jun-19 12:06 33.743220 -118.101736 40 11965ft 270kts
22-Jun-19 12:06 33.795491 -118.067757 352 11966ft 261kts
22-Jun-19 12:07 33.862751 -118.098808 332 11959ft 261kts
22-Jun-19 12:09 33.938822 -118.144128 333 11956ft 261kts
22-Jun-19 12:09 33.993449 -118.175640 333 11960ft 261kts
22-Jun-19 12:10 34.059075 -118.213433 333 11956ft 261kts
22-Jun-19 12:11 34.124799 -118.251433 333 11957ft 261kts
22-Jun-19 12:12 34.190448 -118.289479 333 11961ft 261kts
22-Jun-19 12:13 34.255995 -118.327480 333 11974ft 261kts
22-Jun-19 12:14 34.321417 -118.365518 333 11999ft 260kts
22-Jun-19 12:15 34.386952 -118.403692 333 11993ft 261kts
22-Jun-19 12:16 34.447465 -118.438946 332 13418ft 227kts
22-Jun-19 12:17 34.506033 -118.473225 332 14030ft 245kts
22-Jun-19 12:18 34.564397 -118.507293 331 15448ft 222kts
22-Jun-19 12:19 34.620972 -118.540513 331 16071ft 238kts
22-Jun-19 12:20 34.683287 -118.576355 335 16087ft 253kts
22-Jun-19 12:21 34.751496 -118.601635 340 16105ft 258kts
22-Jun-19 12:22 34.820723 -118.626044 340 16107ft 259kts
22-Jun-19 12:23 34.890277 -118.650739 340 16098ft 260kts
22-Jun-19 12:24 34.959676 -118.675549 340 16085ft 260kts
22-Jun-19 12:25 35.028968 -118.700361 340 16073ft 260kts
22-Jun-19 12:26 35.098381 -118.725005 340 16068ft 259kts
22-Jun-19 12:27 35.167796 -118.749657 340 16035ft 260kts
22-Jun-19 12:28 35.237452 -118.774811 340 16010ft 260kts
22-Jun-19 12:29 35.306719 -118.799991 340 15983ft 260kts
22-Jun-19 12:30 35.376048 -118.825090 340 16041ft 259kts
22-Jun-19 12:31 35.445481 -118.850266 340 16026ft 260kts
22-Jun-19 12:32 35.514919 -118.875558 340 16020ft 260kts
22-Jun-19 12:33 35.584253 -118.900847 340 16020ft 260kts
22-Jun-19 12:34 35.654582 -118.926571 340 15554ft 266kts
22-Jun-19 12:35 35.726176 -118.952581 341 15055ft 268kts
22-Jun-19 12:36 35.797908 -118.978623 341 14490ft 271kts
22-Jun-19 12:37 35.870337 -119.005082 341 14035ft 265kts
22-Jun-19 12:38 35.939217 -119.032407 337 14041ft 257kts
22-Jun-19 12:39 36.005177 -119.064287 337 12777ft 253kts
22-Jun-19 12:40 36.070666 -119.095850 338 11134ft 248kts
22-Jun-19 12:41 36.131160 -119.124658 338 11013ft 217kts
22-Jun-19 12:42 36.185754 -119.150758 338 10649ft 219kts
22-Jun-19 12:43 36.248066 -119.180645 339 8726ft 254kts
22-Jun-19 12:44 36.315282 -119.212512 339 6729ft 260kts
22-Jun-19 12:45 36.382784 -119.244762 339 4725ft 258kts
22-Jun-19 12:46 36.446640 -119.275621 339 4012ft 225kts
22-Jun-19 12:47 36.503740 -119.303177 339 3590ft 223kts
22-Jun-19 12:48 36.559941 -119.336928 313 2792ft 227kts
22-Jun-19 12:49 36.594840 -119.399453 303 2615ft 212kts
22-Jun-19 12:50 36.626550 -119.457584 305 2619ft 174kts
22-Jun-19 12:51 36.651614 -119.502230 305 2608ft 148kts
22-Jun-19 12:52 36.675480 -119.544250 305 2489ft 155kts
22-Jun-19 12:53 36.701834 -119.590203 303 1715ft 165kts
22-Jun-19 12:54 36.727480 -119.635191 304 1593ft 151kts
22-Jun-19 12:55 36.751228 -119.676433 303 1031ft 128kts
22-Jun-19 12:56 36.769335 -119.708224 299 417ft 104kts
22-Jun-19 12:57 36.778016 -119.723572 303 340ft 17kts
22-Jun-19 12:58 36.775806 -119.726357 172 340ft 13kts
22-Jun-19 12:59 36.775364 -119.725977 55 340ft 0kts
22-Jun-19 13:00 36.775367 -119.725973 55 340ft 0kts
22-Jun-19 13:01 36.775369 -119.725969 55 340ft 0kts
22-Jun-19 13:02 36.775371 -119.725965 55 340ft 0kts

Navigation Log

Ident Type
Flight plan parsing failed, navigation log unavailable